Currently 61°F in Murrieta, California, USA
61°F
61°F / 42°F
calm
0.00"
Monday, February 6, 2023 11:19 AM PST

Murrieta, California Weather Summary
Last 36 Hours

Temperature Winds Hourly Humidity Dewpoint
Time Report Norm Report Norm Max Gusts Precip. Rpt. Norm Rpt. Norm Pressure
1,2Mon 11:19 AM  61.2°F  64°F  calm  3 mph  none  0.00"  N/A  48%  N/A°F  44°F  30.30"
Mon 11:00 AM  60.1°F  63°F  calm  3 mph  none  0.00"  N/A  51%  N/A°F  44°F  30.30"
Mon 10:00 AM  57.5°F  58°F  calm  2 mph  7 mph  0.00"  N/A  60%  N/A°F  44°F  30.33"
Mon 09:00 AM  49.6°F  53°F  2 mph S  2 mph  none  0.00"  N/A  72%  N/A°F  43°F  30.33"
Mon 08:00 AM  44.7°F  47°F  calm  1 mph  none  0.00"  N/A  80%  N/A°F  41°F  30.32"
Mon 07:00 AM  42.1°F  44°F  calm  1 mph  none  0.00"  N/A  82%  N/A°F  39°F  30.32"
3Mon 06:42 AM  41.5°F  44°F  calm  1 mph  none  ----  N/A  82%  N/A°F  38°F  30.31"
Mon 06:00 AM  42.7°F  44°F  calm  1 mph  none  0.00"  N/A  82%  N/A°F  39°F  30.29"
Mon 05:00 AM  44.8°F  44°F  calm  1 mph  none  0.00"  N/A  81%  N/A°F  39°F  30.26"
Mon 04:00 AM  47.3°F  45°F  calm  1 mph  none  0.00"  N/A  80%  N/A°F  39°F  30.24"
Mon 03:00 AM  47.0°F  46°F  calm  1 mph  none  0.00"  N/A  79%  N/A°F  39°F  30.24"
Mon 02:00 AM  47.8°F  47°F  calm  1 mph  none  0.00"  N/A  78%  N/A°F  40°F  30.25"
Mon 01:00 AM  48.9°F  47°F  calm  1 mph  none  0.00"  N/A  77%  N/A°F  40°F  30.24"
Mon 12:00 AM  49.5°F  48°F  calm  1 mph  none  0.00"  N/A  75%  N/A°F  41°F  30.24"
Sun 11:00 PM  48.0°F  49°F  calm  1 mph  none  0.00"  N/A  73%  N/A°F  41°F  30.25"
Sun 10:00 PM  48.5°F  51°F  calm  1 mph  none  0.00"  N/A  72%  N/A°F  41°F  30.25"
Sun 09:00 PM  50.5°F  52°F  calm  1 mph  none  0.00"  N/A  70%  N/A°F  42°F  30.26"
Sun 08:00 PM  50.8°F  54°F  calm  2 mph  17 mph  0.00"  N/A  67%  N/A°F  42°F  30.25"
Sun 07:00 PM  51.7°F  56°F  calm  2 mph  9 mph  0.00"  N/A  64%  N/A°F  43°F  30.25"
Sun 06:00 PM  52.5°F  58°F  calm  3 mph  9 mph  0.00"  N/A  60%  N/A°F  44°F  30.24"
Sun 05:00 PM  55.6°F  62°F  calm  4 mph  8 mph  0.00"  N/A  54%  N/A°F  44°F  30.22"
Sun 04:00 PM  59.4°F  65°F  calm  4 mph  8 mph  0.00"  N/A  47%  N/A°F  44°F  30.23"
Sun 03:00 PM  64.4°F  67°F  calm  4 mph  13 mph  0.00"  N/A  43%  N/A°F  43°F  30.22"
Sun 02:00 PM  66.7°F  68°F  calm  4 mph  7 mph  0.00"  N/A  42%  N/A°F  43°F  30.23"
Sun 01:00 PM  67.3°F  67°F  calm  4 mph  8 mph  0.00"  N/A  42%  N/A°F  43°F  30.25"
Sun 12:00 PM  65.9°F  66°F  calm  3 mph  19 mph  0.00"  N/A  45%  N/A°F  43°F  30.29"
Sun 11:00 AM  61.8°F  63°F  calm  3 mph  none  0.00"  N/A  52%  N/A°F  44°F  30.32"
Sun 10:00 AM  55.0°F  58°F  calm  2 mph  none  0.00"  N/A  61%  N/A°F  44°F  30.33"
Sun 09:00 AM  48.9°F  52°F  calm  2 mph  none  0.00"  N/A  73%  N/A°F  44°F  30.32"
Sun 08:00 AM  43.5°F  47°F  calm  1 mph  none  0.00"  N/A  81%  N/A°F  41°F  30.32"
Sun 07:00 AM  41.6°F  44°F  calm  1 mph  none  0.00"  N/A  83%  N/A°F  39°F  30.30"
Sun 06:00 AM  41.3°F  44°F  calm  1 mph  none  0.00"  N/A  82%  N/A°F  39°F  30.28"
Sun 05:00 AM  41.4°F  44°F  calm  calm  none  0.00"  N/A  81%  N/A°F  39°F  30.28"
Sun 04:00 AM  42.3°F  45°F  calm  1 mph  none  0.00"  N/A  80%  N/A°F  39°F  30.28"
Sun 03:00 AM  42.8°F  46°F  calm  1 mph  none  0.00"  N/A  79%  N/A°F  39°F  30.28"
Sun 02:00 AM  44.2°F  47°F  calm  1 mph  none  0.00"  N/A  78%  N/A°F  40°F  30.29"
Sun 01:00 AM  45.9°F  47°F  calm  1 mph  none  0.00"  N/A  77%  N/A°F  40°F  30.28"
Sun 12:00 AM  47.5°F  48°F  calm  1 mph  none  0.00"  N/A  76%  N/A°F  41°F  30.29"

  1. Current weather data. No green row appears if the current weather data is also the high or low for the current day.
  2. High temperature for the current day.
  3. Low temperature for the current day.

The Murrieta weather pages are a service of WeatherCurrents. Murrieta, California is located in the Temecula Valley, in southwestern Riverside County, at the junctions of the Interstate 15 and 215 highways.
Copyright ©2023  WeatherCurrents. All rights reserved. - Submit questions and comments - Privacy Policy

This page automatically refreshes every 10 minutes.